Karmel — 9HA2896 — position and weather

sailwx.info

Track history (hours):
 
Tides and Currents Weather Stations Pressure Air Temp Water Temp Dewpoint Dewpoint Depression Visibility Wind Speed Wind Dir Waves Ship Positions

Karmel

Last reported at 2014-Nov-23 10:33 UTC. Time now 2014-Nov-23 10:58 UTC.
Position N 55°30' E 014°45'.

Length 90 m; draft 4.7 m.

Type: Cargo ship. MMSI: 256632000.

Date/timePositionNaut miles runAvg speedWind from/ knotsBaromVisibWave heightAir tempDewpointWater temp
2014-Nov-23 10:33N 55°30' E 014°45'  
2014-Nov-17 15:28N 57°09' E 017°35'113 7.9
2014-Nov-17 01:06N 55°39' E 015°31'4 6.8
2014-Nov-17 00:28N 55°37' E 015°24'6 6.5
2014-Nov-16 23:34N 55°34' E 015°15'7 6.5
2014-Nov-16 22:33N 55°31' E 015°05'9 6.1
2014-Nov-16 21:03N 55°27' E 014°51'4 6.0
2014-Nov-16 20:22N 55°25' E 014°44'5 6.0
2014-Nov-16 19:34N 55°22' E 014°37'7 6.9
2014-Nov-16 18:32N 55°17' E 014°29'43 6.2
2014-Nov-16 11:32N 55°13' E 013°13'6 6.0
2014-Nov-16 10:33N 55°14' E 013°03'6 6.3
2014-Nov-16 09:33N 55°15' E 012°52'7 6.6
2014-Nov-16 08:34N 55°17' E 012°41'7 7.2
2014-Nov-16 07:33N 55°24' E 012°39'10 9.8
2014-Nov-16 06:34N 55°34' E 012°42'9 9.5
2014-Nov-16 05:34N 55°43' E 012°41'9 9.4
2014-Nov-16 04:34N 55°53' E 012°39'10 9.5
2014-Nov-16 03:33N 56°02' E 012°38'7 6.7
2014-Nov-16 02:34N 56°07' E 012°30'7 7.0
2014-Nov-16 01:33N 56°11' E 012°20'8 7.6
2014-Nov-16 00:34N 56°15' E 012°09'8 7.7
2014-Nov-15 23:33N 56°22' E 012°01'46 8.9
2014-Nov-15 18:23N 57°06' E 011°38'7 9.0
2014-Nov-15 17:33N 57°13' E 011°33'9 9.1
2014-Nov-15 16:33N 57°22' E 011°28'9 9.1
2014-Nov-15 15:34N 57°30' E 011°20'9 9.2
2014-Nov-15 14:33N 57°36' E 011°07'91 4.0
2014-Nov-14 15:32N 57°58' E 008°21'  
Track history (hours):
 
Tides and Currents Weather Stations Pressure Air Temp Water Temp Dewpoint Dewpoint Depression Visibility Wind Speed Wind Dir Waves Ship Positions

Karmel

Last reported at 2014-Nov-23 10:33 UTC. Time now 2014-Nov-23 10:58 UTC.
Position N 55°30' E 014°45'.

Length 90 m; draft 4.7 m.

Type: Cargo ship. MMSI: 256632000.

Date/timePositionNaut miles runAvg speedWind from/ knotsBaromVisibWave heightAir tempDewpointWater temp
2014-Nov-23 10:33N 55°30' E 014°45'  
2014-Nov-17 15:28N 57°09' E 017°35'113 7.9
2014-Nov-17 01:06N 55°39' E 015°31'4 6.8
2014-Nov-17 00:28N 55°37' E 015°24'6 6.5
2014-Nov-16 23:34N 55°34' E 015°15'7 6.5
2014-Nov-16 22:33N 55°31' E 015°05'9 6.1
2014-Nov-16 21:03N 55°27' E 014°51'4 6.0
2014-Nov-16 20:22N 55°25' E 014°44'5 6.0
2014-Nov-16 19:34N 55°22' E 014°37'7 6.9
2014-Nov-16 18:32N 55°17' E 014°29'43 6.2
2014-Nov-16 11:32N 55°13' E 013°13'6 6.0
2014-Nov-16 10:33N 55°14' E 013°03'6 6.3
2014-Nov-16 09:33N 55°15' E 012°52'7 6.6
2014-Nov-16 08:34N 55°17' E 012°41'7 7.2
2014-Nov-16 07:33N 55°24' E 012°39'10 9.8
2014-Nov-16 06:34N 55°34' E 012°42'9 9.5
2014-Nov-16 05:34N 55°43' E 012°41'9 9.4
2014-Nov-16 04:34N 55°53' E 012°39'10 9.5
2014-Nov-16 03:33N 56°02' E 012°38'7 6.7
2014-Nov-16 02:34N 56°07' E 012°30'7 7.0
2014-Nov-16 01:33N 56°11' E 012°20'8 7.6
2014-Nov-16 00:34N 56°15' E 012°09'8 7.7
2014-Nov-15 23:33N 56°22' E 012°01'46 8.9
2014-Nov-15 18:23N 57°06' E 011°38'7 9.0
2014-Nov-15 17:33N 57°13' E 011°33'9 9.1
2014-Nov-15 16:33N 57°22' E 011°28'9 9.1
2014-Nov-15 15:34N 57°30' E 011°20'9 9.2
2014-Nov-15 14:33N 57°36' E 011°07'91 4.0
2014-Nov-14 15:32N 57°58' E 008°21'  

Dump ship's entire track history